WetterOnline ( https://www.wetteronline.de )

Wetter aktuell Markersdorf

Aktuelles Wetter: Görlitz (240m)

6-stündlich | Neueste Meldungen
Ortszeit Temperatur Wetter
Mo, 22.07. 8:00 18.9° C wolkig
Mo, 22.07. 2:00 16.3° C leicht bewölkt
So, 21.07. 20:00 24.7° C fast wolkenlos
So, 21.07. 14:00 24.5° C fast wolkenlos
So, 21.07. 8:00 19.4° C bedeckt
So, 21.07. 2:00 17.1° C bewölkt
Sa, 20.07. 20:00 26.7° C bewölkt
Sa, 20.07. 14:00 27.8° C wolkig
Ortszeit Temperatur Wetter
Mo, 22.07. 12:00 24.2° C leicht bewölkt
Mo, 22.07. 11:50 24.2° C leicht bewölkt
Mo, 22.07. 11:40 24.1° C leicht bewölkt
Mo, 22.07. 11:30 23.4° C leicht bewölkt
Mo, 22.07. 11:20 23.4° C leicht bewölkt
Mo, 22.07. 11:10 23.6° C fast wolkenlos
Mo, 22.07. 11:00 23.2° C wolkenlos
Mo, 22.07. 10:30 23.2° C leicht bewölkt
Mo, 22.07. 10:00 22.3° C leicht bewölkt
Mo, 22.07. 9:30 21.2° C wolkig
Mo, 22.07. 9:00 19.7° C leicht bewölkt
Ortszeit Relative Feuchte Sichtweite
Mo, 22.07. 8:00 72% 35 km
Mo, 22.07. 2:00 75% 55 km
So, 21.07. 20:00 45% >70 km
So, 21.07. 14:00 57% 65 km
So, 21.07. 8:00 81% 45 km
So, 21.07. 2:00 94% 35 km
Sa, 20.07. 20:00 45% 40 km
Sa, 20.07. 14:00 41% 65 km
Ortszeit Relative Feuchte Sichtweite
Mo, 22.07. 12:00 44% 45 km
Mo, 22.07. 11:50 44% -
Mo, 22.07. 11:40 43% -
Mo, 22.07. 11:30 45% 60 km
Mo, 22.07. 11:20 45% -
Mo, 22.07. 11:10 46% -
Mo, 22.07. 11:00 46% >70 km
Mo, 22.07. 10:30 50% 50 km
Mo, 22.07. 10:00 55% 55 km
Mo, 22.07. 9:30 59% 50 km
Mo, 22.07. 9:00 63% 55 km
Ortszeit Niederschlagsmenge Niederschlagsart
Mo, 22.07. 8:00 0.0 l/m2 in 12 Std. -
Mo, 22.07. 2:00 0.0 l/m2 in 6 Std. -
So, 21.07. 20:00 1 l/m2 in 12 Std. -
So, 21.07. 14:00 1 l/m2 in 6 Std. Regen
So, 21.07. 8:00 2 l/m2 in 12 Std. -
So, 21.07. 2:00 2 l/m2 in 6 Std. Regenschauer
Sa, 20.07. 20:00 0.0 l/m2 in 12 Std. -
Sa, 20.07. 14:00 0.0 l/m2 in 6 Std. -
Ortszeit Niederschlagsmenge Niederschlagsart
Mo, 22.07. 12:00 0.0 l/m2 in 1 Std. -
Mo, 22.07. 11:50 keine Meldung -
Mo, 22.07. 11:40 keine Meldung -
Mo, 22.07. 11:30 0.0 l/m2 in 1 Std. -
Mo, 22.07. 11:20 keine Meldung -
Mo, 22.07. 11:10 keine Meldung -
Mo, 22.07. 11:00 0.0 l/m2 in 1 Std. -
Mo, 22.07. 10:30 0.0 l/m2 in 1 Std. -
Mo, 22.07. 10:00 0.0 l/m2 in 1 Std. -
Mo, 22.07. 9:30 0.0 l/m2 in 1 Std. -
Mo, 22.07. 9:00 0.0 l/m2 in 1 Std. -
Ortszeit Stärke Spitze Richtung
km/h Bft. km/h Grad Sektor
Mo, 22.07. 8:00 4 1 11 190° S
Mo, 22.07. 2:00 7 2 11 230° SW
So, 21.07. 20:00 7 2 36 320° NW
So, 21.07. 14:00 17 3 39 280° W
So, 21.07. 8:00 11 2 18 220° SW
So, 21.07. 2:00 11 2 50 100° O
Sa, 20.07. 20:00 7 2 32 160° S
Sa, 20.07. 14:00 11 2 25 200° S
Ortszeit Stärke Spitze Richtung
km/h Bft. km/h Grad Sektor
Mo, 22.07. 12:00 11 2 22 300° NW
Mo, 22.07. 11:50 11 2 - 300° NW
Mo, 22.07. 11:40 11 2 - 310° NW
Mo, 22.07. 11:30 14 3 22 270° W
Mo, 22.07. 11:20 14 3 - 270° W
Mo, 22.07. 11:10 11 2 - 290° W
Mo, 22.07. 11:00 13 3 20 300° NW
Mo, 22.07. 10:30 7 2 14 320° NW
Mo, 22.07. 10:00 6 1 11 280° W
Mo, 22.07. 9:30 4 1 11 250° W
Mo, 22.07. 9:00 6 1 9 300° NW
Ortszeit Untergrenze Bedeckung Gattung
total tief tief mittel hoch
Mo, 22.07. 8:00 1800 m 7/8 1/8 - - -
Mo, 22.07. 2:00 7800 m 4/8 0/8 - - -
So, 21.07. 20:00 1500 m 1/8 1/8 - - -
So, 21.07. 14:00 1050 m 1/8 2/8 - - -
So, 21.07. 8:00 1800 m 8/8 8/8 - - -
So, 21.07. 2:00 3000 m 7/8 7/8 - - -
Sa, 20.07. 20:00 6300 m 7/8 7/8 - - -
Sa, 20.07. 14:00 1500 m 7/8 3/8 - - -
Ortszeit Bedeckungsgrad in Achtel und Wolkenuntergrenze
Mo, 22.07. 12:00 2(8700m) 4(9000m)
Mo, 22.07. 11:50 2(8700m) 4(9000m)
Mo, 22.07. 11:40 1(7500m) 4(8700m)
Mo, 22.07. 11:30 2(7500m) 4(8100m) 5(9000m)
Mo, 22.07. 11:20 2(7500m) 4(8100m)
Mo, 22.07. 11:10 2(8100m)
Mo, 22.07. 11:00 keine Wolken
Mo, 22.07. 10:30 5(10500m)
Mo, 22.07. 10:00 5(10500m)
Mo, 22.07. 9:30 3(9000m) 5(9000m) 7(10500m)
Mo, 22.07. 9:00 3(9000m) 5(10500m) 6(10500m)
Ortszeit Luftdruck NN (hPa) Tendenz (hPa in 3 Std.)
Mo, 22.07. 8:00 1023 + 0,6
Mo, 22.07. 2:00 1023 + 1,0
So, 21.07. 20:00 1019 + 0,7
So, 21.07. 14:00 1019 + 0,9
So, 21.07. 8:00 1017 + 1,8
So, 21.07. 2:00 1016 + 2,6
Sa, 20.07. 20:00 1012 - 1,2
Sa, 20.07. 14:00 1014 - 1,0
Ortszeit Luftdruck NN (hPa) Tendenz (hPa in 3 Std.)
Mo, 22.07. 12:00 1023 - 0,1
Mo, 22.07. 11:50 1023 keine Meldung
Mo, 22.07. 11:40 1023 keine Meldung
Mo, 22.07. 11:30 1023 + 0,1
Mo, 22.07. 11:20 1023 keine Meldung
Mo, 22.07. 11:10 1023 keine Meldung
Mo, 22.07. 11:00 1023 + 0,2
Mo, 22.07. 10:30 1023 + 0,3
Mo, 22.07. 10:00 1023 + 0,3
Mo, 22.07. 9:30 1023 + 0,5
Mo, 22.07. 9:00 1023 + 0,6
Ortszeit Schneehöhe (cm)
Mo, 22.07. 8:00 -
Mo, 22.07. 2:00 -
So, 21.07. 20:00 -
So, 21.07. 14:00 -
So, 21.07. 8:00 -
So, 21.07. 2:00 -
Sa, 20.07. 20:00 -
Sa, 20.07. 14:00 -
Ortszeit Schneehöhe (cm)
Mo, 22.07. 12:00 -
Mo, 22.07. 11:50 -
Mo, 22.07. 11:40 -
Mo, 22.07. 11:30 -
Mo, 22.07. 11:20 -
Mo, 22.07. 11:10 -
Mo, 22.07. 11:00 -
Mo, 22.07. 10:30 -
Mo, 22.07. 10:00 -
Mo, 22.07. 9:30 -
Mo, 22.07. 9:00 -
Link zu dieser Seite / Seite empfehlen

Das Wetter in ...